Time;durP1;ratioP1;P1;durP2;ratioP2;P2;SDS_P1;SDS_P2;PMS_P1;PMS_P2;Temp;Humidity;BMP_temperature;BMP_pressure;BME280_temperature;BME280_humidity;BME280_pressure;Samples;Min_cycle;Max_cycle;Signal;HPM_P1;HPM_P2
2022/03/28 00:03:17;;;;;;;12.20;11.20;;;;;;;7.20;100.00;99359.28;10331168;28;20057;-65
2022/03/28 00:08:20;;;;;;;11.75;10.75;;;;;;;7.14;100.00;99351.69;10330400;28;20415;-65
2022/03/28 00:13:23;;;;;;;11.18;10.27;;;;;;;7.09;100.00;99344.88;10324114;28;20062;-64
2022/03/28 00:18:27;;;;;;;10.82;9.93;;;;;;;7.04;100.00;99344.34;10338444;28;20049;-66
2022/03/28 00:23:32;;;;;;;10.15;9.35;;;;;;;7.00;100.00;99334.81;10359390;28;20049;-66
2022/03/28 00:28:35;;;;;;;10.55;9.65;;;;;;;6.93;100.00;99333.59;10363832;28;20079;-65
2022/03/28 00:33:39;;;;;;;10.23;9.43;;;;;;;6.88;100.00;99330.41;10350786;28;20046;-66
2022/03/28 00:38:43;;;;;;;9.73;8.93;;;;;;;6.81;100.00;99323.78;10367752;28;20031;-65
2022/03/28 00:43:54;;;;;;;10.25;9.38;;;;;;;6.74;100.00;99321.59;10348488;28;20052;-66
2022/03/28 00:48:59;;;;;;;9.95;9.05;;;;;;;6.69;100.00;99323.75;10352381;28;20506;-64
2022/03/28 00:54:02;;;;;;;10.32;9.35;;;;;;;6.64;100.00;99320.56;10350189;28;20053;-67
2022/03/28 00:59:05;;;;;;;9.60;8.90;;;;;;;6.60;100.00;99316.41;10339640;28;20042;-66
2022/03/28 01:04:10;;;;;;;10.55;9.68;;;;;;;6.53;100.00;99299.94;10350084;28;20862;-67
2022/03/28 01:09:13;;;;;;;11.25;10.25;;;;;;;6.47;100.00;99306.59;10353608;28;20049;-65
2022/03/28 01:14:16;;;;;;;11.68;10.68;;;;;;;6.44;100.00;99303.28;10332870;28;20058;-64
2022/03/28 01:19:23;;;;;;;10.77;9.88;;;;;;;6.39;100.00;99306.31;10345698;28;20537;-65
2022/03/28 01:24:28;;;;;;;11.38;10.38;;;;;;;6.35;100.00;99296.78;10345114;28;20048;-65
2022/03/28 01:29:31;;;;;;;10.20;9.30;;;;;;;6.28;100.00;99291.03;10338970;28;20042;-66
2022/03/28 01:34:34;;;;;;;10.38;9.55;;;;;;;6.23;100.00;99293.22;10337787;28;20053;-66
2022/03/28 01:39:39;;;;;;;10.38;9.48;;;;;;;6.17;100.00;99283.78;10341832;28;20061;-64
2022/03/28 01:44:41;;;;;;;10.18;9.27;;;;;;;6.12;100.00;99277.91;10327367;28;20081;-66
2022/03/28 01:49:45;;;;;;;11.40;10.35;;;;;;;6.06;100.00;99270.31;10335362;28;20035;-66
2022/03/28 01:54:49;;;;;;;9.48;8.65;;;;;;;6.00;100.00;99260.09;10339171;28;20046;-64
2022/03/28 01:59:52;;;;;;;9.93;8.93;;;;;;;5.96;100.00;99263.91;10327103;28;20414;-63
2022/03/28 02:04:55;;;;;;;10.63;9.73;;;;;;;5.91;100.00;99255.38;10332326;28;20049;-68
2022/03/28 02:09:59;;;;;;;10.23;9.23;;;;;;;5.84;100.00;99260.31;10331065;28;20043;-68
2022/03/28 02:15:03;;;;;;;11.10;10.10;;;;;;;5.79;100.00;99252.63;10335098;28;20145;-68
2022/03/28 02:20:08;;;;;;;10.65;9.65;;;;;;;5.76;100.00;99244.81;10339117;28;20038;-65
2022/03/28 02:25:14;;;;;;;10.25;9.32;;;;;;;5.71;100.00;99246.94;10364795;28;20793;-67
2022/03/28 02:30:17;;;;;;;10.52;9.63;;;;;;;5.68;100.00;99241.84;10342658;28;20137;-66
2022/03/28 02:35:20;;;;;;;9.95;9.02;;;;;;;5.62;100.00;99237.78;10354540;28;20044;-67
2022/03/28 02:40:24;;;;;;;9.85;8.90;;;;;;;5.55;100.00;99233.81;10357789;28;20040;-66
2022/03/28 02:45:31;;;;;;;10.27;9.38;;;;;;;5.48;100.00;99225.38;10327884;28;20494;-67
2022/03/28 02:50:35;;;;;;;9.90;9.10;;;;;;;5.46;100.00;99232.69;10341908;28;20058;-68
2022/03/28 02:55:39;;;;;;;10.85;9.85;;;;;;;5.39;100.00;99220.69;10349984;28;20057;-67
2022/03/28 03:00:43;;;;;;;10.43;9.52;;;;;;;5.34;100.00;99215.69;10331935;28;20134;-67
2022/03/28 03:05:49;;;;;;;11.40;10.30;;;;;;;5.28;100.00;99205.44;10344478;28;20057;-68
2022/03/28 03:10:54;;;;;;;10.60;9.60;;;;;;;5.15;100.00;99200.09;10344292;28;20047;-67
2022/03/28 03:15:58;;;;;;;10.70;9.60;;;;;;;5.09;100.00;99192.53;10328183;28;20068;-67
2022/03/28 03:21:03;;;;;;;11.05;9.98;;;;;;;5.06;100.00;99190.06;10356212;28;20049;-67
2022/03/28 03:26:08;;;;;;;10.57;9.57;;;;;;;4.96;100.00;99183.66;10338771;28;20077;-66
2022/03/28 03:31:11;;;;;;;10.90;9.80;;;;;;;4.96;100.00;99189.84;10337535;28;20553;-66
2022/03/28 03:36:15;;;;;;;10.45;9.55;;;;;;;4.90;100.00;99183.09;10337557;28;20052;-67
2022/03/28 03:41:21;;;;;;;10.82;9.82;;;;;;;4.85;100.00;99187.06;10337368;28;20498;-67
2022/03/28 03:46:24;;;;;;;10.85;9.85;;;;;;;4.77;100.00;99184.91;10353857;28;20145;-67
2022/03/28 03:51:27;;;;;;;10.40;9.40;;;;;;;4.72;100.00;99179.06;10332490;28;20061;-67
2022/03/28 03:56:32;;;;;;;11.20;10.10;;;;;;;4.68;100.00;99173.06;10332219;28;20053;-67
2022/03/28 04:01:35;;;;;;;10.82;9.75;;;;;;;4.62;100.00;99170.81;10330147;28;20041;-68
2022/03/28 04:06:40;;;;;;;10.35;9.23;;;;;;;4.56;100.00;99172.06;10343540;28;20046;-66
2022/03/28 04:11:44;;;;;;;10.65;9.55;;;;;;;4.53;100.00;99158.94;10324595;28;20137;-68
2022/03/28 04:16:48;;;;;;;11.35;10.15;;;;;;;4.48;100.00;99153.91;10332107;28;20054;-66
2022/03/28 04:21:52;;;;;;;11.00;9.90;;;;;;;4.47;100.00;99154.03;10359519;28;20082;-68
2022/03/28 04:26:59;;;;;;;11.20;10.10;;;;;;;4.45;100.00;99150.59;10345472;28;20461;-66
2022/03/28 04:32:05;;;;;;;10.63;9.52;;;;;;;4.41;100.00;99144.63;10355748;28;20058;-77
2022/03/28 04:37:09;;;;;;;10.75;9.65;;;;;;;4.39;100.00;99137.69;10370738;28;20117;-77
2022/03/28 04:42:12;;;;;;;10.15;9.15;;;;;;;4.36;100.00;99138.75;10363376;28;20122;-78
2022/03/28 04:47:16;;;;;;;12.20;10.88;;;;;;;4.34;100.00;99138.00;10347784;23;20056;-66
2022/03/28 04:52:19;;;;;;;12.45;10.85;;;;;;;4.32;100.00;99139.94;10303188;28;20070;-66
2022/03/28 04:57:22;;;;;;;12.38;11.05;;;;;;;4.32;100.00;99142.59;10291278;28;20038;-63
2022/03/28 05:02:27;;;;;;;11.75;10.55;;;;;;;4.30;100.00;99139.16;10302852;28;20651;-65
2022/03/28 05:07:30;;;;;;;11.98;10.63;;;;;;;4.27;100.00;99140.25;10303810;28;20129;-66
2022/03/28 05:12:34;;;;;;;12.25;9.95;;;;;;;4.26;100.00;99135.84;10305642;28;20049;-67
2022/03/28 05:17:39;;;;;;;10.23;9.18;;;;;;;4.21;100.00;99140.63;10309835;28;20049;-61
2022/03/28 05:22:42;;;;;;;11.18;9.98;;;;;;;4.19;100.00;99137.22;10290090;28;20392;-64
2022/03/28 05:27:46;;;;;;;11.10;10.00;;;;;;;4.17;100.00;99144.50;10302319;28;20082;-65
2022/03/28 05:32:50;;;;;;;11.68;10.48;;;;;;;4.16;100.00;99137.44;10310409;28;20136;-61
2022/03/28 05:37:53;;;;;;;11.90;10.70;;;;;;;4.15;100.00;99135.72;10305736;28;20514;-64
2022/03/28 05:42:56;;;;;;;10.90;9.90;;;;;;;4.15;100.00;99125.91;10304969;28;20142;-64
2022/03/28 05:48:00;;;;;;;12.75;10.95;;;;;;;4.15;100.00;99128.56;10305180;28;20137;-59
2022/03/28 05:53:03;;;;;;;12.63;10.40;;;;;;;4.19;100.00;99118.53;10305120;28;20148;-61
2022/03/28 05:58:07;;;;;;;12.60;10.73;;;;;;;4.23;100.00;99117.38;10300779;28;20113;-68
2022/03/28 06:03:12;;;;;;;12.25;10.43;;;;;;;4.29;100.00;99116.97;10303590;28;20049;-67
2022/03/28 06:08:35;;;;;;;12.25;10.38;;;;;;;4.36;100.00;99113.88;10304634;28;20049;-65
2022/03/28 06:13:38;;;;;;;11.88;10.23;;;;;;;4.43;100.00;99117.84;10315056;28;20141;-65
2022/03/28 06:18:43;;;;;;;11.65;10.10;;;;;;;4.53;100.00;99118.91;10297251;28;20043;-62
2022/03/28 06:23:46;;;;;;;11.10;10.00;;;;;;;4.62;100.00;99118.31;10307796;28;20138;-65
2022/03/28 06:28:49;;;;;;;12.27;10.98;;;;;;;4.75;100.00;99122.78;10313768;28;20042;-63
2022/03/28 06:34:01;;;;;;;10.70;9.60;;;;;;;4.85;100.00;99114.97;10299911;28;20044;-63
2022/03/28 06:39:04;;;;;;;10.80;9.70;;;;;;;5.00;100.00;99110.38;10339816;28;20050;-66
2022/03/28 06:44:11;;;;;;;10.68;9.57;;;;;;;5.10;100.00;99106.09;10347741;28;20038;-65
2022/03/28 06:49:16;;;;;;;10.05;8.65;;;;;;;5.20;100.00;99106.25;10333408;28;20054;-65
2022/03/28 06:54:19;;;;;;;9.32;8.35;;;;;;;5.36;100.00;99106.00;10312338;28;20513;-58
2022/03/28 06:59:23;;;;;;;9.02;8.13;;;;;;;5.49;100.00;99093.47;10302880;28;20038;-58
2022/03/28 07:04:27;;;;;;;9.00;8.10;;;;;;;5.66;100.00;99083.38;10296408;28;20042;-61
2022/03/28 07:09:30;;;;;;;9.15;7.88;;;;;;;5.81;100.00;99084.03;10303117;28;20045;-58
2022/03/28 07:14:34;;;;;;;8.88;7.28;;;;;;;5.96;100.00;99071.31;10302939;28;20422;-59
2022/03/28 07:19:38;;;;;;;8.15;6.97;;;;;;;6.06;100.00;99063.50;10301558;28;20035;-58
2022/03/28 07:24:41;;;;;;;8.50;7.20;;;;;;;6.21;100.00;99058.78;10303121;28;20133;-61
2022/03/28 07:29:44;;;;;;;8.13;6.82;;;;;;;6.38;100.00;99049.47;10297610;28;20035;-57
2022/03/28 07:34:50;;;;;;;7.07;6.38;;;;;;;6.51;100.00;99038.66;10299786;28;20145;-61
2022/03/28 07:39:53;;;;;;;7.65;6.85;;;;;;;6.68;100.00;99040.03;10300255;28;20038;-58
2022/03/28 07:44:57;;;;;;;7.43;6.60;;;;;;;6.87;100.00;99037.56;10296816;28;20054;-59
2022/03/28 07:50:02;;;;;;;7.30;6.60;;;;;;;7.06;100.00;99033.41;10289269;28;20085;-58
2022/03/28 07:55:07;;;;;;;7.07;6.32;;;;;;;7.24;100.00;99026.56;10283043;28;20125;-60
2022/03/28 08:00:13;;;;;;;7.57;6.13;;;;;;;7.48;100.00;99016.63;10300229;28;20065;-59
2022/03/28 08:05:34;;;;;;;6.47;5.88;;;;;;;7.74;100.00;99008.25;10302118;28;20403;-59
2022/03/28 08:10:37;;;;;;;6.85;5.93;;;;;;;7.88;100.00;99002.56;10291846;28;20130;-57
2022/03/28 08:15:40;;;;;;;6.78;6.07;;;;;;;8.11;100.00;98997.94;10297041;28;20050;-62
2022/03/28 08:20:44;;;;;;;7.25;6.20;;;;;;;8.37;100.00;98994.84;10303026;28;20050;-62
2022/03/28 08:25:47;;;;;;;6.57;5.65;;;;;;;8.55;100.00;98980.81;10306209;28;20620;-61
2022/03/28 08:30:50;;;;;;;7.38;6.07;;;;;;;8.78;100.00;98974.28;10308830;28;20038;-58
2022/03/28 08:35:55;;;;;;;6.57;5.90;;;;;;;9.11;100.00;98979.47;10306776;28;20046;-60
2022/03/28 08:40:58;;;;;;;5.88;5.20;;;;;;;9.38;100.00;98962.66;10303565;28;20076;-58
2022/03/28 08:46:04;;;;;;;5.43;4.88;;;;;;;9.56;100.00;98954.75;10293464;28;20058;-55
2022/03/28 08:51:09;;;;;;;8.65;5.40;;;;;;;9.86;100.00;98952.88;10304168;28;20509;-59
2022/03/28 08:56:12;;;;;;;6.10;5.53;;;;;;;10.16;100.00;98958.19;10303080;28;20105;-60
2022/03/28 09:01:36;;;;;;;5.32;4.82;;;;;;;10.40;100.00;98933.50;10307307;28;20050;-59
2022/03/28 09:06:43;;;;;;;5.97;5.38;;;;;;;10.70;100.00;98934.22;10308488;28;20045;-57
2022/03/28 09:11:49;;;;;;;8.25;5.63;;;;;;;10.90;100.00;98926.00;10300603;28;20070;-62
2022/03/28 09:17:04;;;;;;;5.93;5.13;;;;;;;11.11;100.00;98917.66;10301661;28;20573;-60
2022/03/28 09:22:12;;;;;;;6.68;5.22;;;;;;;11.34;100.00;98914.50;10304654;28;20034;-56
2022/03/28 09:27:18;;;;;;;6.05;5.07;;;;;;;11.55;100.00;98911.50;10305868;28;20121;-57
2022/03/28 09:32:23;;;;;;;7.07;5.10;;;;;;;11.87;100.00;98900.13;10303233;28;20078;-60
2022/03/28 09:37:29;;;;;;;5.50;5.00;;;;;;;12.09;100.00;98897.06;10308041;28;20117;-59
2022/03/28 09:42:32;;;;;;;6.90;4.95;;;;;;;12.41;100.00;98884.75;10306571;28;20050;-56
2022/03/28 09:47:36;;;;;;;8.38;5.10;;;;;;;12.64;100.00;98883.16;10278227;28;20114;-56
2022/03/28 09:52:44;;;;;;;5.97;4.72;;;;;;;13.08;100.00;98873.97;10310488;28;20506;-57
2022/03/28 09:57:48;;;;;;;6.13;4.25;;;;;;;13.34;100.00;98869.47;10295349;28;20533;-59
2022/03/28 10:02:52;;;;;;;4.60;4.20;;;;;;;13.51;100.00;98854.94;10299600;28;20051;-58
2022/03/28 10:07:59;;;;;;;5.40;4.05;;;;;;;13.82;100.00;98840.69;10298104;28;20121;-62
2022/03/28 10:13:05;;;;;;;4.85;4.10;;;;;;;14.36;100.00;98843.75;10296275;28;20049;-62
2022/03/28 10:18:09;;;;;;;4.35;3.72;;;;;;;14.59;100.00;98841.13;10293790;28;20050;-57
2022/03/28 10:23:18;;;;;;;4.28;3.60;;;;;;;14.67;100.00;98829.41;10306034;28;20185;-58
2022/03/28 10:28:21;;;;;;;4.40;3.13;;;;;;;14.94;100.00;98823.47;10303799;28;20133;-61
2022/03/28 10:33:25;;;;;;;3.38;3.08;;;;;;;15.23;100.00;98810.22;10302110;28;20534;-59
2022/03/28 10:38:29;;;;;;;3.30;3.00;;;;;;;15.38;100.00;98797.53;10286809;28;20050;-61
2022/03/28 10:43:35;;;;;;;3.38;3.03;;;;;;;15.53;100.00;98797.56;10309067;28;20064;-58
2022/03/28 10:48:40;;;;;;;3.50;2.85;;;;;;;15.57;100.00;98789.91;10301741;28;20055;-56
2022/03/28 10:53:47;;;;;;;5.45;3.15;;;;;;;15.68;100.00;98775.03;10300671;28;20495;-59
2022/03/28 10:58:53;;;;;;;3.83;2.83;;;;;;;15.91;100.00;98764.13;10301596;28;20054;-61
2022/03/28 11:04:06;;;;;;;3.38;3.08;;;;;;;15.84;100.00;98766.75;10303457;28;20046;-62
2022/03/28 11:09:10;;;;;;;3.60;2.72;;;;;;;16.04;100.00;98749.03;10284231;28;20507;-60
2022/03/28 11:14:14;;;;;;;3.38;2.72;;;;;;;16.10;100.00;98734.69;10298465;28;20078;-60
2022/03/28 11:19:27;;;;;;;2.95;2.53;;;;;;;16.38;100.00;98731.25;10299246;28;20070;-62
2022/03/28 11:24:46;;;;;;;2.70;2.50;;;;;;;16.37;100.00;98724.97;10301254;28;20063;-60
2022/03/28 11:29:50;;;;;;;2.72;2.40;;;;;;;16.55;100.00;98713.66;10297715;28;20062;-63
2022/03/28 11:34:55;;;;;;;3.03;2.72;;;;;;;16.76;100.00;98703.81;10304222;28;20126;-62
2022/03/28 11:40:03;;;;;;;5.10;2.10;;;;;;;16.81;100.00;98695.09;10302895;28;20050;-60
2022/03/28 11:45:09;;;;;;;2.83;2.20;;;;;;;17.07;100.00;98681.72;10286967;28;20563;-61
2022/03/28 11:50:12;;;;;;;3.15;2.67;;;;;;;16.97;95.19;98680.41;10282604;28;20117;-62
2022/03/28 11:55:22;;;;;;;3.17;2.40;;;;;;;17.06;98.51;98662.88;10297111;28;20042;-61
2022/03/28 12:00:27;;;;;;;2.22;2.03;;;;;;;16.96;99.77;98665.09;10301825;28;20125;-62
2022/03/28 12:05:32;;;;;;;3.85;2.20;;;;;;;16.91;100.00;98661.06;10284010;28;20484;-62
2022/03/28 12:10:38;;;;;;;3.05;2.45;;;;;;;16.72;100.00;98648.97;10293140;28;20046;-61
2022/03/28 12:15:46;;;;;;;2.28;2.08;;;;;;;16.66;99.28;98641.59;10309426;28;20113;-62
2022/03/28 12:20:51;;;;;;;2.20;2.00;;;;;;;16.67;99.50;98623.38;10303948;28;20038;-60
2022/03/28 12:26:03;;;;;;;3.85;2.22;;;;;;;16.80;100.00;98615.34;10306277;28;20557;-61
2022/03/28 12:31:08;;;;;;;2.40;2.20;;;;;;;17.06;100.00;98613.88;10309712;28;20081;-60
2022/03/28 12:36:13;;;;;;;2.53;2.20;;;;;;;17.09;100.00;98605.34;10280397;28;20473;-62
2022/03/28 12:41:18;;;;;;;2.40;2.20;;;;;;;17.02;100.00;98579.94;10283868;28;20142;-60
2022/03/28 12:46:23;;;;;;;5.03;2.40;;;;;;;17.03;100.00;98578.91;10304190;28;20102;-61
2022/03/28 12:51:28;;;;;;;5.75;2.10;;;;;;;17.18;100.00;98566.00;10308251;28;20055;-60
2022/03/28 12:56:43;;;;;;;3.42;2.70;;;;;;;17.40;100.00;98563.19;10305386;28;20161;-60
2022/03/28 13:01:45;;;;;;;4.70;2.50;;;;;;;17.29;100.00;98563.75;10274645;28;20438;-62
2022/03/28 13:06:51;;;;;;;2.63;2.30;;;;;;;17.32;100.00;98564.19;10301814;28;20431;-59
2022/03/28 13:11:55;;;;;;;2.47;2.28;;;;;;;17.36;97.57;98545.56;10306477;28;20092;-61
2022/03/28 13:17:07;;;;;;;4.93;2.40;;;;;;;17.19;98.75;98532.31;10289391;28;20039;-61
2022/03/28 13:22:11;;;;;;;5.03;2.35;;;;;;;17.38;100.00;98535.31;10303534;28;20134;-60
2022/03/28 13:32:39;;;;;;;3.88;2.10;;;;;;;18.22;93.30;98513.34;10303479;28;20046;-59
2022/03/28 13:37:53;;;;;;;2.10;1.90;;;;;;;18.48;88.09;98509.78;10303130;28;20074;-60
2022/03/28 13:42:58;;;;;;;2.75;1.77;;;;;;;18.56;82.49;98497.81;10293195;28;20089;-60
2022/03/28 13:48:03;;;;;;;3.13;1.70;;;;;;;18.40;78.54;98494.47;10285009;28;20537;-61
2022/03/28 13:53:07;;;;;;;2.78;1.50;;;;;;;18.33;76.04;98471.81;10286000;28;20031;-59
2022/03/28 13:58:12;;;;;;;1.48;1.38;;;;;;;18.50;73.09;98471.38;10286550;28;20093;-61
2022/03/28 14:03:16;;;;;;;2.53;1.60;;;;;;;18.84;71.45;98453.06;10281019;28;20047;-60
2022/03/28 14:08:20;;;;;;;1.60;1.50;;;;;;;18.89;67.02;98454.09;10283555;28;20384;-61
2022/03/28 14:13:24;;;;;;;2.35;1.30;;;;;;;19.12;65.69;98441.00;10283664;28;20047;-62
2022/03/28 14:18:27;;;;;;;2.50;1.42;;;;;;;19.00;65.16;98430.75;10285490;28;20067;-61
2022/03/28 14:23:31;;;;;;;1.50;1.40;;;;;;;18.88;65.73;98424.25;10284170;28;20137;-60
2022/03/28 14:28:41;;;;;;;2.05;1.60;;;;;;;19.22;62.75;98405.91;10264290;28;20574;-59
2022/03/28 14:33:45;;;;;;;2.20;1.48;;;;;;;19.33;59.98;98401.63;10283979;28;20499;-57
2022/03/28 14:38:48;;;;;;;3.00;1.40;;;;;;;19.56;58.93;98388.25;10284319;28;20122;-62
2022/03/28 14:43:53;;;;;;;2.05;1.30;;;;;;;19.51;55.39;98395.44;10282930;28;20065;-61
2022/03/28 14:49:05;;;;;;;1.65;1.27;;;;;;;19.25;57.54;98392.66;10281562;28;20496;-61
2022/03/28 14:54:09;;;;;;;1.40;1.30;;;;;;;19.36;57.47;98388.38;10280706;28;20137;-60
2022/03/28 14:59:14;;;;;;;1.48;1.38;;;;;;;19.62;56.31;98372.03;10283090;28;20070;-61
2022/03/28 15:04:17;;;;;;;2.97;1.40;;;;;;;19.30;55.33;98391.97;10282184;28;20045;-61
2022/03/28 15:09:21;;;;;;;2.17;1.58;;;;;;;19.19;57.46;98359.91;10281419;28;20425;-59
2022/03/28 15:14:25;;;;;;;2.17;1.58;;;;;;;19.14;55.89;98354.25;10282929;28;20054;-61
2022/03/28 15:19:28;;;;;;;1.50;1.40;;;;;;;18.62;55.10;98346.91;10285834;28;20046;-60
2022/03/28 15:24:31;;;;;;;4.13;1.63;;;;;;;18.70;55.25;98352.13;10283835;28;20105;-60
2022/03/28 15:29:45;;;;;;;2.03;1.50;;;;;;;19.00;54.16;98348.84;10280546;28;20054;-61
2022/03/28 15:34:48;;;;;;;1.60;1.50;;;;;;;19.11;55.38;98335.59;10262827;28;20146;-61
2022/03/28 15:39:51;;;;;;;2.80;1.77;;;;;;;19.42;57.07;98331.19;10277751;28;20053;-61
2022/03/28 15:44:56;;;;;;;2.15;1.85;;;;;;;19.36;56.24;98328.25;10280475;28;20142;-60
2022/03/28 15:50:04;;;;;;;3.88;1.90;;;;;;;19.27;53.77;98318.66;10281976;28;20103;-62
2022/03/28 15:55:09;;;;;;;3.30;1.70;;;;;;;19.30;53.65;98320.97;10279606;28;20051;-60
2022/03/28 16:00:14;;;;;;;2.63;1.83;;;;;;;19.14;57.05;98313.28;10281164;28;20113;-63
2022/03/28 16:05:17;;;;;;;2.78;1.95;;;;;;;19.08;56.96;98310.41;10280472;28;20070;-61
2022/03/28 16:10:21;;;;;;;1.85;1.70;;;;;;;19.08;57.44;98301.34;10280298;28;20083;-59
2022/03/28 16:15:26;;;;;;;2.92;2.00;;;;;;;19.12;56.80;98293.56;10277500;28;20145;-60
2022/03/28 16:20:29;;;;;;;3.05;1.85;;;;;;;19.02;57.71;98300.34;10280633;28;20455;-61
2022/03/28 16:25:32;;;;;;;2.65;2.05;;;;;;;18.98;57.21;98293.66;10283483;28;20082;-59
2022/03/28 16:30:36;;;;;;;2.30;1.83;;;;;;;18.86;59.18;98296.19;10337856;22;20114;-61
2022/03/28 16:35:45;;;;;;;5.65;1.88;;;;;;;18.79;59.29;98281.75;10458890;28;20127;-62
2022/03/28 16:40:49;;;;;;;2.85;1.80;;;;;;;18.76;59.74;98276.72;10475050;28;20041;-57
2022/03/28 16:45:53;;;;;;;2.00;1.80;;;;;;;18.62;59.85;98284.97;10471810;28;20040;-66
2022/03/28 16:50:57;;;;;;;2.25;1.70;;;;;;;18.41;59.28;98277.09;10454030;28;20033;-59
2022/03/28 16:56:00;;;;;;;3.10;1.60;;;;;;;18.33;62.04;98259.09;10471761;28;20090;-63
2022/03/28 17:01:05;;;;;;;4.15;1.90;;;;;;;18.18;61.17;98257.44;10479533;28;20500;-64
2022/03/28 17:06:08;;;;;;;3.85;1.63;;;;;;;17.92;62.68;98255.59;10476326;28;20051;-57
2022/03/28 17:11:11;;;;;;;4.70;1.92;;;;;;;17.79;64.03;98242.00;10474317;28;20132;-59
2022/03/28 17:16:16;;;;;;;4.30;1.67;;;;;;;17.53;64.55;98260.06;10475877;28;20110;-62
2022/03/28 17:21:20;;;;;;;3.80;1.92;;;;;;;17.44;65.45;98247.69;10482620;28;20084;-61
2022/03/28 17:26:23;;;;;;;2.17;1.60;;;;;;;17.21;65.03;98252.53;10477938;28;20472;-58
2022/03/28 17:31:27;;;;;;;2.35;1.80;;;;;;;17.01;68.52;98257.94;10477793;28;20081;-61
2022/03/28 17:36:30;;;;;;;3.45;1.60;;;;;;;16.83;70.71;98254.94;10464042;28;20049;-59
2022/03/28 17:41:35;;;;;;;4.25;1.85;;;;;;;16.66;72.52;98249.91;10459543;28;20087;-63
2022/03/28 17:46:40;;;;;;;2.63;1.90;;;;;;;16.52;74.57;98243.59;10450895;28;20443;-61
2022/03/28 17:51:46;;;;;;;4.72;1.80;;;;;;;16.37;75.34;98237.47;10444424;28;20051;-60
2022/03/28 17:56:49;;;;;;;4.15;1.80;;;;;;;16.27;77.90;98246.84;10454625;28;20655;-63
2022/03/28 18:01:55;;;;;;;3.15;1.80;;;;;;;16.18;81.55;98239.88;10455870;28;20060;-62
2022/03/28 18:06:58;;;;;;;3.05;2.05;;;;;;;16.15;82.78;98237.56;10463117;28;20068;-64
2022/03/28 18:12:02;;;;;;;2.67;1.80;;;;;;;16.00;86.16;98233.09;10467850;28;20043;-64
2022/03/28 18:17:06;;;;;;;5.63;1.92;;;;;;;15.88;89.26;98234.72;10451223;28;20051;-64
2022/03/28 18:22:10;;;;;;;2.33;2.05;;;;;;;15.79;90.81;98228.56;10450415;28;20065;-64
2022/03/28 18:27:13;;;;;;;3.78;2.38;;;;;;;15.67;94.01;98228.28;10447846;28;20051;-64
2022/03/28 18:32:18;;;;;;;3.03;2.65;;;;;;;15.51;100.00;98234.03;10450005;28;20123;-64
2022/03/28 18:37:21;;;;;;;5.05;4.18;;;;;;;15.16;100.00;98237.53;10430873;28;20150;-64
2022/03/28 18:42:24;;;;;;;7.15;4.72;;;;;;;14.84;100.00;98230.75;10448036;28;20048;-63
2022/03/28 18:47:29;;;;;;;6.50;5.78;;;;;;;14.56;100.00;98234.19;10452212;28;20084;-64
2022/03/28 18:52:33;;;;;;;7.40;5.90;;;;;;;14.31;100.00;98237.22;10455551;28;20555;-63
2022/03/28 18:57:36;;;;;;;11.63;6.55;;;;;;;14.13;100.00;98234.91;10457907;28;20445;-63
2022/03/28 19:02:41;;;;;;;8.13;5.85;;;;;;;13.98;100.00;98245.78;10431673;28;20129;-62
2022/03/28 19:07:46;;;;;;;8.68;6.10;;;;;;;13.86;100.00;98232.69;10448290;28;20144;-63
2022/03/28 19:12:49;;;;;;;8.07;6.47;;;;;;;13.74;100.00;98238.78;10450097;28;20094;-62
2022/03/28 19:17:53;;;;;;;11.40;6.88;;;;;;;13.70;100.00;98236.44;10430747;28;20068;-63
2022/03/28 19:23:00;;;;;;;13.20;6.50;;;;;;;13.54;100.00;98236.59;10447508;28;20051;-63
2022/03/28 19:28:04;;;;;;;8.13;6.50;;;;;;;13.38;100.00;98248.41;10449667;28;20072;-64
2022/03/28 19:33:09;;;;;;;8.82;7.10;;;;;;;13.29;100.00;98249.50;10452129;28;20473;-63
2022/03/28 19:38:13;;;;;;;9.18;6.97;;;;;;;13.23;100.00;98251.91;10451279;28;20481;-63
2022/03/28 19:43:17;;;;;;;8.45;6.85;;;;;;;13.21;100.00;98247.72;10455134;28;20424;-63
2022/03/28 19:48:22;;;;;;;7.25;6.28;;;;;;;13.11;100.00;98231.75;10458108;28;20398;-62
2022/03/28 19:53:25;;;;;;;8.00;6.72;;;;;;;13.00;100.00;98246.53;10450276;28;20166;-63
2022/03/28 19:58:28;;;;;;;8.40;6.85;;;;;;;12.82;100.00;98248.72;10447939;28;20163;-63
2022/03/28 20:03:33;;;;;;;9.35;7.95;;;;;;;12.62;100.00;98251.88;10431988;28;20679;-60
2022/03/28 20:08:36;;;;;;;10.80;7.70;;;;;;;12.43;100.00;98250.47;10446028;28;20511;-60
2022/03/28 20:13:39;;;;;;;9.27;8.13;;;;;;;12.25;100.00;98237.22;10445309;28;20033;-62
2022/03/28 20:18:44;;;;;;;9.77;8.20;;;;;;;12.11;100.00;98236.09;10449541;28;20043;-61
2022/03/28 20:23:48;;;;;;;9.98;8.27;;;;;;;11.91;100.00;98236.50;10456047;28;20065;-62
2022/03/28 20:28:52;;;;;;;12.50;8.90;;;;;;;11.84;100.00;98230.09;10442556;28;20071;-61
2022/03/28 20:33:57;;;;;;;11.15;8.50;;;;;;;11.80;100.00;98239.59;10453031;28;20148;-61
2022/03/28 20:39:00;;;;;;;11.23;8.43;;;;;;;11.41;100.00;98242.03;10456945;28;20043;-61
2022/03/28 20:44:04;;;;;;;10.02;8.93;;;;;;;11.45;100.00;98237.13;10456220;28;20040;-61
2022/03/28 20:49:09;;;;;;;10.98;8.90;;;;;;;11.36;100.00;98230.91;10459532;28;20123;-61
2022/03/28 20:54:14;;;;;;;13.57;9.07;;;;;;;11.45;100.00;98241.69;10458721;28;20051;-62
2022/03/28 20:59:19;;;;;;;10.65;8.88;;;;;;;11.52;100.00;98232.75;10468445;28;20051;-63
2022/03/28 21:04:25;;;;;;;10.70;9.02;;;;;;;11.53;100.00;98228.19;10449049;28;20135;-62
2022/03/28 21:09:28;;;;;;;11.18;8.60;;;;;;;11.47;100.00;98228.84;10454025;28;20128;-63
2022/03/28 21:14:31;;;;;;;10.07;8.75;;;;;;;11.40;100.00;98215.25;10450394;28;20036;-61
2022/03/28 21:19:36;;;;;;;10.38;9.07;;;;;;;11.39;100.00;98219.78;10450170;28;20440;-62
2022/03/28 21:24:39;;;;;;;12.13;9.68;;;;;;;11.35;100.00;98221.13;10450358;28;20075;-61
2022/03/28 21:29:44;;;;;;;11.73;9.23;;;;;;;11.38;100.00;98212.69;10454805;28;20051;-60
2022/03/28 21:34:49;;;;;;;11.32;9.55;;;;;;;11.31;100.00;98216.25;10452887;28;20131;-60
2022/03/28 21:39:52;;;;;;;13.93;9.55;;;;;;;11.25;100.00;98199.75;10470475;28;20072;-60
2022/03/28 21:44:55;;;;;;;10.65;9.10;;;;;;;11.19;100.00;98204.97;10472223;28;20884;-63
2022/03/28 21:50:00;;;;;;;13.02;9.30;;;;;;;11.12;100.00;98203.97;10453621;28;20073;-62
2022/03/28 21:55:09;;;;;;;12.95;9.48;;;;;;;10.98;100.00;98202.81;10453524;28;20393;-61
2022/03/28 22:00:19;;;;;;;11.85;9.60;;;;;;;10.76;100.00;98200.59;10454156;28;21177;-62
2022/03/28 22:05:24;;;;;;;11.02;9.60;;;;;;;10.56;100.00;98199.25;10449362;28;20071;-61
2022/03/28 22:10:28;;;;;;;13.65;10.43;;;;;;;10.46;100.00;98194.88;10446631;28;20067;-62
2022/03/28 22:15:31;;;;;;;14.10;10.00;;;;;;;10.33;100.00;98199.84;10454475;28;20563;-62
2022/03/28 22:20:37;;;;;;;15.30;10.70;;;;;;;10.07;100.00;98190.03;10462618;28;20044;-62
2022/03/28 22:25:41;;;;;;;12.93;10.35;;;;;;;9.86;100.00;98188.63;10454795;28;20040;-62
2022/03/28 22:30:44;;;;;;;13.68;10.88;;;;;;;9.65;100.00;98190.91;10453080;28;20106;-63
2022/03/28 22:35:48;;;;;;;14.02;10.52;;;;;;;9.57;100.00;98191.69;10452437;28;20051;-62
2022/03/28 22:40:52;;;;;;;14.43;10.88;;;;;;;9.55;100.00;98178.41;10451492;28;20120;-62
2022/03/28 22:45:55;;;;;;;15.38;11.80;;;;;;;9.54;100.00;98187.50;10447947;28;20564;-63
2022/03/28 22:51:00;;;;;;;15.10;11.15;;;;;;;9.50;100.00;98191.50;10452194;28;20159;-63
2022/03/28 22:56:04;;;;;;;13.75;10.77;;;;;;;9.35;100.00;98198.50;10452589;28;20124;-63
2022/03/28 23:01:07;;;;;;;14.63;11.30;;;;;;;9.15;100.00;98206.75;10446715;28;20140;-63
2022/03/28 23:06:12;;;;;;;13.95;11.27;;;;;;;9.14;100.00;98209.59;10448216;28;20488;-63
2022/03/28 23:11:15;;;;;;;13.27;9.75;;;;;;;9.05;100.00;98209.56;10459764;28;20077;-62
2022/03/28 23:16:18;;;;;;;11.52;8.48;;;;;;;9.02;100.00;98195.56;10426765;23;20401;-61
2022/03/28 23:21:23;;;;;;;12.45;7.85;;;;;;;8.97;100.00;98187.97;10398003;28;20413;-60
2022/03/28 23:26:26;;;;;;;10.27;7.85;;;;;;;8.97;100.00;98184.47;10400701;28;20124;-60